sensor_id;sensor_type;location;lat;lon;timestamp;P1;durP1;ratioP1;P2;durP2;ratioP2
10582;SDS011;33679;51.218;6.786;2022-12-11T00:02:22;42.27;;;18.17;;
10582;SDS011;33679;51.218;6.786;2022-12-11T00:04:49;43.37;;;17.90;;
10582;SDS011;33679;51.218;6.786;2022-12-11T00:07:18;41.87;;;15.97;;
10582;SDS011;33679;51.218;6.786;2022-12-11T00:09:52;39.63;;;16.93;;
10582;SDS011;33679;51.218;6.786;2022-12-11T00:12:20;48.33;;;18.23;;
10582;SDS011;33679;51.218;6.786;2022-12-11T00:14:47;41.03;;;15.33;;
10582;SDS011;33679;51.218;6.786;2022-12-11T00:17:14;40.03;;;14.90;;
10582;SDS011;33679;51.218;6.786;2022-12-11T00:19:48;45.77;;;17.60;;
10582;SDS011;33679;51.218;6.786;2022-12-11T00:22:17;45.13;;;17.20;;
10582;SDS011;33679;51.218;6.786;2022-12-11T00:24:45;46.10;;;16.70;;
10582;SDS011;33679;51.218;6.786;2022-12-11T00:27:12;47.33;;;16.97;;
10582;SDS011;33679;51.218;6.786;2022-12-11T00:29:43;38.67;;;15.67;;
10582;SDS011;33679;51.218;6.786;2022-12-11T00:32:13;43.37;;;16.40;;
10582;SDS011;33679;51.218;6.786;2022-12-11T00:34:41;46.73;;;17.30;;
10582;SDS011;33679;51.218;6.786;2022-12-11T00:37:09;40.37;;;13.93;;
10582;SDS011;33679;51.218;6.786;2022-12-11T00:39:38;48.33;;;17.40;;
10582;SDS011;33679;51.218;6.786;2022-12-11T00:42:08;48.83;;;17.10;;
10582;SDS011;33679;51.218;6.786;2022-12-11T00:44:45;40.60;;;16.20;;
10582;SDS011;33679;51.218;6.786;2022-12-11T00:47:12;35.43;;;15.30;;
10582;SDS011;33679;51.218;6.786;2022-12-11T00:49:41;47.57;;;16.50;;
10582;SDS011;33679;51.218;6.786;2022-12-11T00:52:10;40.10;;;14.87;;
10582;SDS011;33679;51.218;6.786;2022-12-11T00:54:50;36.83;;;14.67;;
10582;SDS011;33679;51.218;6.786;2022-12-11T00:57:17;43.27;;;15.73;;
10582;SDS011;33679;51.218;6.786;2022-12-11T00:59:47;43.80;;;15.67;;
10582;SDS011;33679;51.218;6.786;2022-12-11T01:02:16;34.40;;;14.00;;
10582;SDS011;33679;51.218;6.786;2022-12-11T01:04:47;33.83;;;14.47;;
10582;SDS011;33679;51.218;6.786;2022-12-11T01:07:14;33.73;;;13.40;;
10582;SDS011;33679;51.218;6.786;2022-12-11T01:09:44;28.60;;;12.30;;
10582;SDS011;33679;51.218;6.786;2022-12-11T01:12:31;27.23;;;11.37;;
10582;SDS011;33679;51.218;6.786;2022-12-11T01:14:58;34.30;;;11.07;;
10582;SDS011;33679;51.218;6.786;2022-12-11T01:17:25;30.20;;;12.03;;
10582;SDS011;33679;51.218;6.786;2022-12-11T01:19:53;41.90;;;14.27;;
10582;SDS011;33679;51.218;6.786;2022-12-11T01:22:28;29.33;;;12.47;;
10582;SDS011;33679;51.218;6.786;2022-12-11T01:24:56;36.07;;;13.80;;
10582;SDS011;33679;51.218;6.786;2022-12-11T01:27:23;29.27;;;13.80;;
10582;SDS011;33679;51.218;6.786;2022-12-11T01:29:52;37.23;;;14.00;;
10582;SDS011;33679;51.218;6.786;2022-12-11T01:32:29;31.53;;;12.40;;
10582;SDS011;33679;51.218;6.786;2022-12-11T01:34:57;30.33;;;13.17;;
10582;SDS011;33679;51.218;6.786;2022-12-11T01:37:25;29.17;;;14.20;;
10582;SDS011;33679;51.218;6.786;2022-12-11T01:39:52;34.37;;;13.60;;
10582;SDS011;33679;51.218;6.786;2022-12-11T01:42:19;36.73;;;14.17;;
10582;SDS011;33679;51.218;6.786;2022-12-11T01:48:04;40.57;;;13.40;;
10582;SDS011;33679;51.218;6.786;2022-12-11T01:50:35;32.80;;;12.83;;
10582;SDS011;33679;51.218;6.786;2022-12-11T01:53:11;42.27;;;14.70;;
10582;SDS011;33679;51.218;6.786;2022-12-11T01:55:41;32.10;;;14.23;;
10582;SDS011;33679;51.218;6.786;2022-12-11T01:58:09;35.60;;;14.87;;
10582;SDS011;33679;51.218;6.786;2022-12-11T02:00:49;36.77;;;14.80;;
10582;SDS011;33679;51.218;6.786;2022-12-11T02:03:18;39.00;;;14.50;;
10582;SDS011;33679;51.218;6.786;2022-12-11T02:05:46;41.03;;;14.70;;
10582;SDS011;33679;51.218;6.786;2022-12-11T02:08:13;37.07;;;14.63;;
10582;SDS011;33679;51.218;6.786;2022-12-11T02:10:44;36.07;;;13.40;;
10582;SDS011;33679;51.218;6.786;2022-12-11T02:13:22;36.97;;;12.60;;
10582;SDS011;33679;51.218;6.786;2022-12-11T02:16:05;38.73;;;13.50;;
10582;SDS011;33679;51.218;6.786;2022-12-11T02:18:46;35.97;;;12.20;;
10582;SDS011;33679;51.218;6.786;2022-12-11T02:21:19;34.20;;;13.17;;
10582;SDS011;33679;51.218;6.786;2022-12-11T02:24:03;30.70;;;12.80;;
10582;SDS011;33679;51.218;6.786;2022-12-11T02:26:50;36.43;;;14.63;;
10582;SDS011;33679;51.218;6.786;2022-12-11T02:29:29;25.77;;;11.80;;
10582;SDS011;33679;51.218;6.786;2022-12-11T02:32:07;38.50;;;12.00;;
10582;SDS011;33679;51.218;6.786;2022-12-11T02:34:40;25.90;;;11.03;;
10582;SDS011;33679;51.218;6.786;2022-12-11T02:37:11;31.43;;;12.70;;
10582;SDS011;33679;51.218;6.786;2022-12-11T02:39:44;28.53;;;11.60;;
10582;SDS011;33679;51.218;6.786;2022-12-11T02:42:14;25.40;;;10.60;;
10582;SDS011;33679;51.218;6.786;2022-12-11T02:44:43;35.63;;;13.47;;
10582;SDS011;33679;51.218;6.786;2022-12-11T02:47:14;29.73;;;11.57;;
10582;SDS011;33679;51.218;6.786;2022-12-11T02:49:46;32.60;;;12.97;;
10582;SDS011;33679;51.218;6.786;2022-12-11T02:52:16;31.03;;;12.00;;
10582;SDS011;33679;51.218;6.786;2022-12-11T02:54:47;35.33;;;12.83;;
10582;SDS011;33679;51.218;6.786;2022-12-11T02:57:21;35.90;;;12.10;;
10582;SDS011;33679;51.218;6.786;2022-12-11T02:59:55;29.17;;;12.60;;
10582;SDS011;33679;51.218;6.786;2022-12-11T03:02:25;37.97;;;13.90;;
10582;SDS011;33679;51.218;6.786;2022-12-11T03:04:54;31.00;;;12.43;;
10582;SDS011;33679;51.218;6.786;2022-12-11T03:07:25;30.90;;;13.03;;
10582;SDS011;33679;51.218;6.786;2022-12-11T03:09:56;42.17;;;15.63;;
10582;SDS011;33679;51.218;6.786;2022-12-11T03:12:24;39.17;;;12.50;;
10582;SDS011;33679;51.218;6.786;2022-12-11T03:15:04;40.83;;;14.90;;
10582;SDS011;33679;51.218;6.786;2022-12-11T03:17:34;41.27;;;13.27;;
10582;SDS011;33679;51.218;6.786;2022-12-11T03:20:10;44.20;;;15.80;;
10582;SDS011;33679;51.218;6.786;2022-12-11T03:22:45;35.03;;;14.20;;
10582;SDS011;33679;51.218;6.786;2022-12-11T03:25:19;39.47;;;14.33;;
10582;SDS011;33679;51.218;6.786;2022-12-11T03:27:49;38.00;;;14.40;;
10582;SDS011;33679;51.218;6.786;2022-12-11T03:30:24;31.50;;;14.53;;
10582;SDS011;33679;51.218;6.786;2022-12-11T03:32:57;40.37;;;14.47;;
10582;SDS011;33679;51.218;6.786;2022-12-11T03:35:29;36.60;;;13.90;;
10582;SDS011;33679;51.218;6.786;2022-12-11T03:38:01;39.40;;;13.60;;
10582;SDS011;33679;51.218;6.786;2022-12-11T03:40:35;35.43;;;16.17;;
10582;SDS011;33679;51.218;6.786;2022-12-11T03:43:05;33.00;;;13.80;;
10582;SDS011;33679;51.218;6.786;2022-12-11T03:45:34;37.47;;;15.70;;
10582;SDS011;33679;51.218;6.786;2022-12-11T03:48:05;31.93;;;13.37;;
10582;SDS011;33679;51.218;6.786;2022-12-11T03:50:39;40.33;;;15.93;;
10582;SDS011;33679;51.218;6.786;2022-12-11T03:53:08;38.73;;;13.80;;
10582;SDS011;33679;51.218;6.786;2022-12-11T03:55:36;36.43;;;14.00;;
10582;SDS011;33679;51.218;6.786;2022-12-11T03:58:06;32.07;;;13.70;;
10582;SDS011;33679;51.218;6.786;2022-12-11T04:00:34;32.00;;;13.50;;
10582;SDS011;33679;51.218;6.786;2022-12-11T04:03:05;39.73;;;14.43;;
10582;SDS011;33679;51.218;6.786;2022-12-11T04:05:41;31.70;;;13.00;;
10582;SDS011;33679;51.218;6.786;2022-12-11T04:08:13;33.13;;;13.50;;
10582;SDS011;33679;51.218;6.786;2022-12-11T04:10:41;34.70;;;12.40;;
10582;SDS011;33679;51.218;6.786;2022-12-11T04:13:09;33.23;;;13.37;;
10582;SDS011;33679;51.218;6.786;2022-12-11T04:15:38;31.80;;;13.90;;
10582;SDS011;33679;51.218;6.786;2022-12-11T04:18:05;32.43;;;13.60;;
10582;SDS011;33679;51.218;6.786;2022-12-11T04:20:52;33.50;;;14.30;;
10582;SDS011;33679;51.218;6.786;2022-12-11T04:23:37;30.70;;;12.10;;
10582;SDS011;33679;51.218;6.786;2022-12-11T04:26:22;32.97;;;14.50;;
10582;SDS011;33679;51.218;6.786;2022-12-11T04:28:51;34.70;;;13.10;;
10582;SDS011;33679;51.218;6.786;2022-12-11T04:31:22;32.23;;;12.33;;
10582;SDS011;33679;51.218;6.786;2022-12-11T04:33:49;28.63;;;11.10;;
10582;SDS011;33679;51.218;6.786;2022-12-11T04:36:19;28.10;;;12.30;;
10582;SDS011;33679;51.218;6.786;2022-12-11T04:38:47;33.90;;;13.37;;
10582;SDS011;33679;51.218;6.786;2022-12-11T04:41:14;27.93;;;13.47;;
10582;SDS011;33679;51.218;6.786;2022-12-11T04:43:49;30.90;;;12.33;;
10582;SDS011;33679;51.218;6.786;2022-12-11T04:46:17;24.70;;;10.90;;
10582;SDS011;33679;51.218;6.786;2022-12-11T04:48:48;25.07;;;11.93;;
10582;SDS011;33679;51.218;6.786;2022-12-11T04:51:16;26.70;;;11.10;;
10582;SDS011;33679;51.218;6.786;2022-12-11T04:53:44;30.87;;;11.83;;
10582;SDS011;33679;51.218;6.786;2022-12-11T04:56:12;28.70;;;12.50;;
10582;SDS011;33679;51.218;6.786;2022-12-11T04:58:42;29.83;;;11.70;;
10582;SDS011;33679;51.218;6.786;2022-12-11T05:01:10;24.40;;;12.50;;
10582;SDS011;33679;51.218;6.786;2022-12-11T05:03:39;34.40;;;13.10;;
10582;SDS011;33679;51.218;6.786;2022-12-11T05:06:08;26.70;;;11.57;;
10582;SDS011;33679;51.218;6.786;2022-12-11T05:08:39;23.97;;;10.37;;
10582;SDS011;33679;51.218;6.786;2022-12-11T05:11:08;22.77;;;10.83;;
10582;SDS011;33679;51.218;6.786;2022-12-11T05:13:37;24.60;;;10.50;;
10582;SDS011;33679;51.218;6.786;2022-12-11T05:16:07;24.80;;;10.63;;
10582;SDS011;33679;51.218;6.786;2022-12-11T05:18:35;22.23;;;10.37;;
10582;SDS011;33679;51.218;6.786;2022-12-11T05:21:04;22.87;;;10.60;;
10582;SDS011;33679;51.218;6.786;2022-12-11T05:23:34;29.40;;;11.70;;
10582;SDS011;33679;51.218;6.786;2022-12-11T05:26:05;29.77;;;11.10;;
10582;SDS011;33679;51.218;6.786;2022-12-11T05:28:43;25.97;;;11.87;;
10582;SDS011;33679;51.218;6.786;2022-12-11T05:31:12;22.20;;;10.17;;
10582;SDS011;33679;51.218;6.786;2022-12-11T05:33:43;23.67;;;9.43;;
10582;SDS011;33679;51.218;6.786;2022-12-11T05:36:12;26.50;;;11.17;;
10582;SDS011;33679;51.218;6.786;2022-12-11T05:38:44;22.40;;;10.00;;
10582;SDS011;33679;51.218;6.786;2022-12-11T05:41:12;25.73;;;11.07;;
10582;SDS011;33679;51.218;6.786;2022-12-11T05:43:40;27.47;;;11.00;;
10582;SDS011;33679;51.218;6.786;2022-12-11T05:46:08;24.73;;;10.37;;
10582;SDS011;33679;51.218;6.786;2022-12-11T05:48:39;24.63;;;10.97;;
10582;SDS011;33679;51.218;6.786;2022-12-11T05:51:10;22.90;;;11.03;;
10582;SDS011;33679;51.218;6.786;2022-12-11T05:53:38;21.37;;;10.43;;
10582;SDS011;33679;51.218;6.786;2022-12-11T05:56:10;24.63;;;11.23;;
10582;SDS011;33679;51.218;6.786;2022-12-11T05:58:38;28.37;;;11.63;;
10582;SDS011;33679;51.218;6.786;2022-12-11T06:01:07;26.40;;;10.93;;
10582;SDS011;33679;51.218;6.786;2022-12-11T06:03:36;24.97;;;10.60;;
10582;SDS011;33679;51.218;6.786;2022-12-11T06:06:04;22.97;;;10.00;;
10582;SDS011;33679;51.218;6.786;2022-12-11T06:08:34;25.73;;;11.20;;
10582;SDS011;33679;51.218;6.786;2022-12-11T06:11:05;23.70;;;9.83;;
10582;SDS011;33679;51.218;6.786;2022-12-11T06:13:35;22.60;;;10.80;;
10582;SDS011;33679;51.218;6.786;2022-12-11T06:16:04;25.53;;;11.57;;
10582;SDS011;33679;51.218;6.786;2022-12-11T06:18:34;29.97;;;13.13;;
10582;SDS011;33679;51.218;6.786;2022-12-11T06:21:09;25.87;;;11.20;;
10582;SDS011;33679;51.218;6.786;2022-12-11T06:23:36;22.20;;;10.83;;
10582;SDS011;33679;51.218;6.786;2022-12-11T06:26:04;22.33;;;10.87;;
10582;SDS011;33679;51.218;6.786;2022-12-11T06:28:31;23.90;;;11.10;;
10582;SDS011;33679;51.218;6.786;2022-12-11T06:31:03;26.97;;;10.23;;
10582;SDS011;33679;51.218;6.786;2022-12-11T06:33:31;29.03;;;11.30;;
10582;SDS011;33679;51.218;6.786;2022-12-11T06:36:00;30.20;;;12.37;;
10582;SDS011;33679;51.218;6.786;2022-12-11T06:38:27;21.87;;;10.90;;
10582;SDS011;33679;51.218;6.786;2022-12-11T06:40:54;24.70;;;10.80;;
10582;SDS011;33679;51.218;6.786;2022-12-11T06:43:22;27.50;;;11.67;;
10582;SDS011;33679;51.218;6.786;2022-12-11T06:45:51;26.27;;;11.97;;
10582;SDS011;33679;51.218;6.786;2022-12-11T06:48:23;28.83;;;13.00;;
10582;SDS011;33679;51.218;6.786;2022-12-11T06:50:50;26.90;;;11.80;;
10582;SDS011;33679;51.218;6.786;2022-12-11T06:53:17;26.33;;;11.20;;
10582;SDS011;33679;51.218;6.786;2022-12-11T06:55:44;28.50;;;12.20;;
10582;SDS011;33679;51.218;6.786;2022-12-11T06:58:14;25.30;;;11.17;;
10582;SDS011;33679;51.218;6.786;2022-12-11T07:00:41;28.50;;;12.57;;
10582;SDS011;33679;51.218;6.786;2022-12-11T07:03:08;29.07;;;11.40;;
10582;SDS011;33679;51.218;6.786;2022-12-11T07:05:39;28.30;;;12.57;;
10582;SDS011;33679;51.218;6.786;2022-12-11T07:08:07;26.80;;;12.43;;
10582;SDS011;33679;51.218;6.786;2022-12-11T07:10:36;25.13;;;12.63;;
10582;SDS011;33679;51.218;6.786;2022-12-11T07:13:04;25.80;;;11.03;;
10582;SDS011;33679;51.218;6.786;2022-12-11T07:15:33;24.10;;;11.50;;
10582;SDS011;33679;51.218;6.786;2022-12-11T07:18:00;24.63;;;11.27;;
10582;SDS011;33679;51.218;6.786;2022-12-11T07:20:27;27.50;;;11.23;;
10582;SDS011;33679;51.218;6.786;2022-12-11T07:22:56;24.00;;;11.07;;
10582;SDS011;33679;51.218;6.786;2022-12-11T07:25:23;33.83;;;12.70;;
10582;SDS011;33679;51.218;6.786;2022-12-11T07:27:50;27.53;;;12.93;;
10582;SDS011;33679;51.218;6.786;2022-12-11T07:30:20;19.53;;;9.87;;
10582;SDS011;33679;51.218;6.786;2022-12-11T07:32:47;28.10;;;12.80;;
10582;SDS011;33679;51.218;6.786;2022-12-11T07:35:14;24.00;;;10.50;;
10582;SDS011;33679;51.218;6.786;2022-12-11T07:37:41;24.70;;;11.30;;
10582;SDS011;33679;51.218;6.786;2022-12-11T07:40:11;22.90;;;10.00;;
10582;SDS011;33679;51.218;6.786;2022-12-11T07:42:39;24.87;;;9.70;;
10582;SDS011;33679;51.218;6.786;2022-12-11T07:45:06;22.60;;;9.47;;
10582;SDS011;33679;51.218;6.786;2022-12-11T07:47:34;24.47;;;9.80;;
10582;SDS011;33679;51.218;6.786;2022-12-11T07:50:01;21.13;;;9.77;;
10582;SDS011;33679;51.218;6.786;2022-12-11T07:52:29;24.60;;;8.87;;
10582;SDS011;33679;51.218;6.786;2022-12-11T07:54:58;20.00;;;9.23;;
10582;SDS011;33679;51.218;6.786;2022-12-11T07:57:29;23.73;;;9.57;;
10582;SDS011;33679;51.218;6.786;2022-12-11T07:59:56;22.47;;;10.10;;
10582;SDS011;33679;51.218;6.786;2022-12-11T08:02:23;24.83;;;10.30;;
10582;SDS011;33679;51.218;6.786;2022-12-11T08:04:51;17.43;;;9.20;;
10582;SDS011;33679;51.218;6.786;2022-12-11T08:07:18;21.80;;;9.60;;
10582;SDS011;33679;51.218;6.786;2022-12-11T08:09:45;18.93;;;9.13;;
10582;SDS011;33679;51.218;6.786;2022-12-11T08:12:13;19.37;;;8.90;;
10582;SDS011;33679;51.218;6.786;2022-12-11T08:14:41;18.30;;;9.00;;
10582;SDS011;33679;51.218;6.786;2022-12-11T08:17:08;18.83;;;8.97;;
10582;SDS011;33679;51.218;6.786;2022-12-11T08:19:35;19.80;;;9.17;;
10582;SDS011;33679;51.218;6.786;2022-12-11T08:22:02;18.70;;;8.67;;
10582;SDS011;33679;51.218;6.786;2022-12-11T08:24:33;15.43;;;8.50;;
10582;SDS011;33679;51.218;6.786;2022-12-11T08:27:02;14.67;;;7.77;;
10582;SDS011;33679;51.218;6.786;2022-12-11T08:29:29;15.70;;;7.63;;
10582;SDS011;33679;51.218;6.786;2022-12-11T08:31:58;20.80;;;8.90;;
10582;SDS011;33679;51.218;6.786;2022-12-11T08:34:25;18.57;;;9.23;;
10582;SDS011;33679;51.218;6.786;2022-12-11T08:36:53;24.10;;;11.00;;
10582;SDS011;33679;51.218;6.786;2022-12-11T08:39:23;17.63;;;9.13;;
10582;SDS011;33679;51.218;6.786;2022-12-11T08:41:51;14.17;;;7.17;;
10582;SDS011;33679;51.218;6.786;2022-12-11T08:44:18;19.17;;;9.63;;
10582;SDS011;33679;51.218;6.786;2022-12-11T08:46:45;24.77;;;9.00;;
10582;SDS011;33679;51.218;6.786;2022-12-11T08:49:14;17.00;;;8.70;;
10582;SDS011;33679;51.218;6.786;2022-12-11T08:51:43;19.40;;;9.23;;
10582;SDS011;33679;51.218;6.786;2022-12-11T08:54:12;19.00;;;7.73;;
10582;SDS011;33679;51.218;6.786;2022-12-11T08:56:39;20.23;;;8.90;;
10582;SDS011;33679;51.218;6.786;2022-12-11T08:59:06;19.90;;;7.63;;
10582;SDS011;33679;51.218;6.786;2022-12-11T09:01:34;15.87;;;8.60;;
10582;SDS011;33679;51.218;6.786;2022-12-11T09:04:01;18.00;;;8.20;;
10582;SDS011;33679;51.218;6.786;2022-12-11T09:06:31;17.77;;;8.43;;
10582;SDS011;33679;51.218;6.786;2022-12-11T09:08:59;19.67;;;8.20;;
10582;SDS011;33679;51.218;6.786;2022-12-11T09:11:28;20.37;;;8.63;;
10582;SDS011;33679;51.218;6.786;2022-12-11T09:13:56;13.90;;;7.83;;
10582;SDS011;33679;51.218;6.786;2022-12-11T09:16:25;20.87;;;9.27;;
10582;SDS011;33679;51.218;6.786;2022-12-11T09:18:57;17.90;;;8.80;;
10582;SDS011;33679;51.218;6.786;2022-12-11T09:21:26;18.23;;;7.57;;
10582;SDS011;33679;51.218;6.786;2022-12-11T09:23:58;15.80;;;8.43;;
10582;SDS011;33679;51.218;6.786;2022-12-11T09:26:27;16.30;;;8.47;;
10582;SDS011;33679;51.218;6.786;2022-12-11T09:28:55;14.87;;;7.93;;
10582;SDS011;33679;51.218;6.786;2022-12-11T09:31:23;18.17;;;8.30;;
10582;SDS011;33679;51.218;6.786;2022-12-11T09:33:53;19.40;;;9.63;;
10582;SDS011;33679;51.218;6.786;2022-12-11T09:36:21;19.07;;;8.93;;
10582;SDS011;33679;51.218;6.786;2022-12-11T09:38:49;14.50;;;8.10;;
10582;SDS011;33679;51.218;6.786;2022-12-11T09:47:00;14.70;;;7.30;;
10582;SDS011;33679;51.218;6.786;2022-12-11T09:49:43;14.30;;;7.37;;
10582;SDS011;33679;51.218;6.786;2022-12-11T09:52:13;15.30;;;8.10;;
10582;SDS011;33679;51.218;6.786;2022-12-11T09:54:44;15.90;;;7.77;;
10582;SDS011;33679;51.218;6.786;2022-12-11T09:57:22;16.17;;;8.37;;
10582;SDS011;33679;51.218;6.786;2022-12-11T10:00:11;14.50;;;7.60;;
10582;SDS011;33679;51.218;6.786;2022-12-11T10:02:53;8.47;;;5.70;;
10582;SDS011;33679;51.218;6.786;2022-12-11T10:05:36;11.80;;;7.23;;
10582;SDS011;33679;51.218;6.786;2022-12-11T10:08:12;16.27;;;7.30;;
10582;SDS011;33679;51.218;6.786;2022-12-11T10:10:44;11.50;;;6.83;;
10582;SDS011;33679;51.218;6.786;2022-12-11T10:16:19;14.90;;;6.97;;
10582;SDS011;33679;51.218;6.786;2022-12-11T10:18:58;14.40;;;7.07;;
10582;SDS011;33679;51.218;6.786;2022-12-11T10:21:28;17.87;;;7.87;;
10582;SDS011;33679;51.218;6.786;2022-12-11T10:24:09;17.93;;;8.63;;
10582;SDS011;33679;51.218;6.786;2022-12-11T10:26:51;18.57;;;8.93;;
10582;SDS011;33679;51.218;6.786;2022-12-11T10:29:25;22.30;;;10.23;;
10582;SDS011;33679;51.218;6.786;2022-12-11T10:31:58;23.13;;;9.93;;
10582;SDS011;33679;51.218;6.786;2022-12-11T10:34:30;22.60;;;9.60;;
10582;SDS011;33679;51.218;6.786;2022-12-11T10:37:00;23.13;;;9.40;;
10582;SDS011;33679;51.218;6.786;2022-12-11T10:39:30;18.77;;;9.50;;
10582;SDS011;33679;51.218;6.786;2022-12-11T10:42:00;19.57;;;9.03;;
10582;SDS011;33679;51.218;6.786;2022-12-11T10:44:53;20.67;;;9.13;;
10582;SDS011;33679;51.218;6.786;2022-12-11T10:47:32;21.10;;;8.97;;
10582;SDS011;33679;51.218;6.786;2022-12-11T10:50:20;17.93;;;9.77;;
10582;SDS011;33679;51.218;6.786;2022-12-11T10:52:55;22.37;;;10.20;;
10582;SDS011;33679;51.218;6.786;2022-12-11T10:55:24;19.30;;;9.60;;
10582;SDS011;33679;51.218;6.786;2022-12-11T10:58:04;26.00;;;11.97;;
10582;SDS011;33679;51.218;6.786;2022-12-11T11:00:39;27.00;;;11.53;;
10582;SDS011;33679;51.218;6.786;2022-12-11T11:03:19;24.13;;;11.13;;
10582;SDS011;33679;51.218;6.786;2022-12-11T11:06:00;25.80;;;12.03;;
10582;SDS011;33679;51.218;6.786;2022-12-11T11:08:46;22.33;;;10.00;;
10582;SDS011;33679;51.218;6.786;2022-12-11T11:11:22;24.90;;;9.73;;
10582;SDS011;33679;51.218;6.786;2022-12-11T11:14:03;23.53;;;10.07;;
10582;SDS011;33679;51.218;6.786;2022-12-11T11:16:40;27.17;;;11.07;;
10582;SDS011;33679;51.218;6.786;2022-12-11T11:19:13;19.83;;;9.00;;
10582;SDS011;33679;51.218;6.786;2022-12-11T11:21:52;19.17;;;9.63;;
10582;SDS011;33679;51.218;6.786;2022-12-11T11:24:38;22.70;;;9.47;;
10582;SDS011;33679;51.218;6.786;2022-12-11T11:27:22;17.43;;;8.60;;
10582;SDS011;33679;51.218;6.786;2022-12-11T11:30:05;19.97;;;9.30;;
10582;SDS011;33679;51.218;6.786;2022-12-11T11:32:57;24.50;;;9.93;;
10582;SDS011;33679;51.218;6.786;2022-12-11T11:35:34;21.90;;;9.87;;
10582;SDS011;33679;51.218;6.786;2022-12-11T11:38:14;16.83;;;8.80;;
10582;SDS011;33679;51.218;6.786;2022-12-11T11:40:45;23.67;;;10.73;;
10582;SDS011;33679;51.218;6.786;2022-12-11T11:43:33;26.40;;;12.23;;
10582;SDS011;33679;51.218;6.786;2022-12-11T11:46:07;14.80;;;8.60;;
10582;SDS011;33679;51.218;6.786;2022-12-11T11:48:52;18.07;;;8.60;;
10582;SDS011;33679;51.218;6.786;2022-12-11T11:51:29;18.80;;;9.17;;
10582;SDS011;33679;51.218;6.786;2022-12-11T11:54:02;21.17;;;8.83;;
10582;SDS011;33679;51.218;6.786;2022-12-11T11:56:41;18.53;;;9.67;;
10582;SDS011;33679;51.218;6.786;2022-12-11T11:59:13;22.93;;;10.93;;
10582;SDS011;33679;51.218;6.786;2022-12-11T12:01:56;23.23;;;10.03;;
10582;SDS011;33679;51.218;6.786;2022-12-11T12:04:30;19.37;;;10.20;;
10582;SDS011;33679;51.218;6.786;2022-12-11T12:07:13;23.57;;;10.53;;
10582;SDS011;33679;51.218;6.786;2022-12-11T12:09:51;20.93;;;9.97;;
10582;SDS011;33679;51.218;6.786;2022-12-11T12:12:32;28.00;;;12.87;;
10582;SDS011;33679;51.218;6.786;2022-12-11T12:15:09;65.87;;;31.50;;
10582;SDS011;33679;51.218;6.786;2022-12-11T12:17:55;31.13;;;12.80;;
10582;SDS011;33679;51.218;6.786;2022-12-11T12:20:31;24.70;;;11.30;;
10582;SDS011;33679;51.218;6.786;2022-12-11T12:23:27;23.23;;;11.30;;
10582;SDS011;33679;51.218;6.786;2022-12-11T12:26:14;25.80;;;10.63;;
10582;SDS011;33679;51.218;6.786;2022-12-11T12:28:55;26.60;;;11.60;;
10582;SDS011;33679;51.218;6.786;2022-12-11T12:31:37;21.87;;;11.00;;
10582;SDS011;33679;51.218;6.786;2022-12-11T12:34:27;27.50;;;12.40;;
10582;SDS011;33679;51.218;6.786;2022-12-11T12:37:16;29.50;;;13.93;;
10582;SDS011;33679;51.218;6.786;2022-12-11T12:39:55;30.63;;;13.47;;
10582;SDS011;33679;51.218;6.786;2022-12-11T12:42:42;23.60;;;11.47;;
10582;SDS011;33679;51.218;6.786;2022-12-11T12:45:23;25.87;;;12.90;;
10582;SDS011;33679;51.218;6.786;2022-12-11T12:47:53;19.33;;;9.93;;
10582;SDS011;33679;51.218;6.786;2022-12-11T12:50:25;21.13;;;10.87;;
10582;SDS011;33679;51.218;6.786;2022-12-11T12:53:02;25.20;;;11.33;;
10582;SDS011;33679;51.218;6.786;2022-12-11T12:55:36;21.40;;;11.20;;
10582;SDS011;33679;51.218;6.786;2022-12-11T12:58:05;27.80;;;12.17;;
10582;SDS011;33679;51.218;6.786;2022-12-11T13:00:34;24.20;;;10.70;;
10582;SDS011;33679;51.218;6.786;2022-12-11T13:03:10;24.43;;;11.80;;
10582;SDS011;33679;51.218;6.786;2022-12-11T13:05:42;25.13;;;10.63;;
10582;SDS011;33679;51.218;6.786;2022-12-11T13:08:22;31.27;;;12.40;;
10582;SDS011;33679;51.218;6.786;2022-12-11T13:10:59;26.27;;;12.30;;
10582;SDS011;33679;51.218;6.786;2022-12-11T13:13:34;26.00;;;11.50;;
10582;SDS011;33679;51.218;6.786;2022-12-11T13:18:51;26.63;;;10.97;;
10582;SDS011;33679;51.218;6.786;2022-12-11T13:21:33;27.37;;;11.33;;
10582;SDS011;33679;51.218;6.786;2022-12-11T13:24:23;27.60;;;11.57;;
10582;SDS011;33679;51.218;6.786;2022-12-11T13:27:06;30.50;;;11.67;;
10582;SDS011;33679;51.218;6.786;2022-12-11T13:29:37;26.03;;;13.63;;
10582;SDS011;33679;51.218;6.786;2022-12-11T13:32:20;24.93;;;11.80;;
10582;SDS011;33679;51.218;6.786;2022-12-11T13:34:59;30.83;;;12.47;;
10582;SDS011;33679;51.218;6.786;2022-12-11T13:37:45;22.53;;;10.40;;
10582;SDS011;33679;51.218;6.786;2022-12-11T13:40:25;24.67;;;11.63;;
10582;SDS011;33679;51.218;6.786;2022-12-11T13:43:14;24.33;;;11.50;;
10582;SDS011;33679;51.218;6.786;2022-12-11T13:46:04;24.20;;;11.57;;
10582;SDS011;33679;51.218;6.786;2022-12-11T13:48:50;23.97;;;11.70;;
10582;SDS011;33679;51.218;6.786;2022-12-11T13:51:25;27.27;;;12.37;;
10582;SDS011;33679;51.218;6.786;2022-12-11T13:54:12;24.03;;;11.33;;
10582;SDS011;33679;51.218;6.786;2022-12-11T13:56:55;25.00;;;13.70;;
10582;SDS011;33679;51.218;6.786;2022-12-11T13:59:26;28.40;;;13.30;;
10582;SDS011;33679;51.218;6.786;2022-12-11T14:01:57;25.57;;;11.93;;
10582;SDS011;33679;51.218;6.786;2022-12-11T14:04:44;24.13;;;12.33;;
10582;SDS011;33679;51.218;6.786;2022-12-11T14:07:14;28.40;;;11.50;;
10582;SDS011;33679;51.218;6.786;2022-12-11T14:10:06;25.07;;;10.80;;
10582;SDS011;33679;51.218;6.786;2022-12-11T14:15:44;25.33;;;11.00;;
10582;SDS011;33679;51.218;6.786;2022-12-11T14:18:22;23.40;;;11.30;;
10582;SDS011;33679;51.218;6.786;2022-12-11T14:22:29;23.30;;;10.90;;
10582;SDS011;33679;51.218;6.786;2022-12-11T14:25:21;25.70;;;11.37;;
10582;SDS011;33679;51.218;6.786;2022-12-11T14:27:56;23.70;;;12.17;;
10582;SDS011;33679;51.218;6.786;2022-12-11T14:30:31;24.73;;;11.73;;
10582;SDS011;33679;51.218;6.786;2022-12-11T14:33:10;21.50;;;11.80;;
10582;SDS011;33679;51.218;6.786;2022-12-11T14:35:40;21.33;;;10.23;;
10582;SDS011;33679;51.218;6.786;2022-12-11T14:49:14;23.77;;;12.30;;
10582;SDS011;33679;51.218;6.786;2022-12-11T14:51:58;24.73;;;12.10;;
10582;SDS011;33679;51.218;6.786;2022-12-11T14:54:31;23.20;;;11.00;;
10582;SDS011;33679;51.218;6.786;2022-12-11T14:57:24;25.97;;;10.13;;
10582;SDS011;33679;51.218;6.786;2022-12-11T14:59:57;24.90;;;11.80;;
10582;SDS011;33679;51.218;6.786;2022-12-11T15:02:37;25.93;;;12.13;;
10582;SDS011;33679;51.218;6.786;2022-12-11T15:05:29;23.57;;;11.23;;
10582;SDS011;33679;51.218;6.786;2022-12-11T15:08:01;23.20;;;11.83;;
10582;SDS011;33679;51.218;6.786;2022-12-11T15:11:06;27.67;;;12.40;;
10582;SDS011;33679;51.218;6.786;2022-12-11T15:13:51;25.97;;;12.83;;
10582;SDS011;33679;51.218;6.786;2022-12-11T15:16:24;22.23;;;9.97;;
10582;SDS011;33679;51.218;6.786;2022-12-11T15:19:02;23.53;;;11.50;;
10582;SDS011;33679;51.218;6.786;2022-12-11T15:21:32;20.20;;;11.00;;
10582;SDS011;33679;51.218;6.786;2022-12-11T15:24:02;21.67;;;9.43;;
10582;SDS011;33679;51.218;6.786;2022-12-11T15:26:50;19.80;;;10.70;;
10582;SDS011;33679;51.218;6.786;2022-12-11T15:29:23;25.03;;;11.27;;
10582;SDS011;33679;51.218;6.786;2022-12-11T15:32:23;23.37;;;11.83;;